sensor_id;sensor_type;location;lat;lon;timestamp;pressure;altitude;pressure_sealevel;temperature;humidity
79331;BME280;68797;49.782;19.054;2023-06-10T00:00:13;96889.28;;;16.87;86.66
79331;BME280;68797;49.782;19.054;2023-06-10T00:03:04;96886.22;;;16.78;86.79
79331;BME280;68797;49.782;19.054;2023-06-10T00:05:33;96884.31;;;16.80;87.08
79331;BME280;68797;49.782;19.054;2023-06-10T00:08:09;96881.81;;;16.77;86.89
79331;BME280;68797;49.782;19.054;2023-06-10T00:10:37;96888.03;;;16.78;86.95
79331;BME280;68797;49.782;19.054;2023-06-10T00:13:06;96891.78;;;16.75;86.75
79331;BME280;68797;49.782;19.054;2023-06-10T00:15:38;96890.06;;;16.74;86.90
79331;BME280;68797;49.782;19.054;2023-06-10T00:18:05;96869.50;;;16.75;86.80
79331;BME280;68797;49.782;19.054;2023-06-10T00:20:32;96874.34;;;16.68;86.76
79331;BME280;68797;49.782;19.054;2023-06-10T00:23:04;96886.59;;;16.72;87.15
79331;BME280;68797;49.782;19.054;2023-06-10T00:25:34;96875.38;;;16.66;86.87
79331;BME280;68797;49.782;19.054;2023-06-10T00:28:02;96870.28;;;16.61;87.10
79331;BME280;68797;49.782;19.054;2023-06-10T00:30:29;96891.28;;;16.69;86.81
79331;BME280;68797;49.782;19.054;2023-06-10T00:33:07;96890.50;;;16.67;86.62
79331;BME280;68797;49.782;19.054;2023-06-10T00:35:36;96880.06;;;16.62;86.63
79331;BME280;68797;49.782;19.054;2023-06-10T00:38:06;96891.56;;;16.64;86.79
79331;BME280;68797;49.782;19.054;2023-06-10T00:40:39;96902.16;;;16.66;87.42
79331;BME280;68797;49.782;19.054;2023-06-10T00:43:08;96893.84;;;16.56;86.91
79331;BME280;68797;49.782;19.054;2023-06-10T00:45:34;96900.72;;;16.60;87.13
79331;BME280;68797;49.782;19.054;2023-06-10T00:48:04;96886.28;;;16.48;87.40
79331;BME280;68797;49.782;19.054;2023-06-10T00:50:31;96897.38;;;16.56;86.91
79331;BME280;68797;49.782;19.054;2023-06-10T00:53:06;96896.78;;;16.51;87.43
79331;BME280;68797;49.782;19.054;2023-06-10T00:55:35;96896.78;;;16.51;86.91
79331;BME280;68797;49.782;19.054;2023-06-10T00:58:03;96914.31;;;16.57;87.22
79331;BME280;68797;49.782;19.054;2023-06-10T01:00:34;96895.16;;;16.49;87.46
79331;BME280;68797;49.782;19.054;2023-06-10T01:03:05;96898.44;;;16.54;87.52
79331;BME280;68797;49.782;19.054;2023-06-10T01:05:35;96899.66;;;16.48;87.29
79331;BME280;68797;49.782;19.054;2023-06-10T01:08:37;96909.25;;;16.52;87.43
79331;BME280;68797;49.782;19.054;2023-06-10T01:11:16;96907.78;;;16.47;87.84
79331;BME280;68797;49.782;19.054;2023-06-10T01:13:45;96908.09;;;16.42;87.92
79331;BME280;68797;49.782;19.054;2023-06-10T01:16:15;96898.34;;;16.41;88.04
79331;BME280;68797;49.782;19.054;2023-06-10T01:18:41;96897.63;;;16.38;88.36
79331;BME280;68797;49.782;19.054;2023-06-10T01:21:22;96905.97;;;16.33;88.38
79331;BME280;68797;49.782;19.054;2023-06-10T01:23:56;96914.00;;;16.33;88.99
79331;BME280;68797;49.782;19.054;2023-06-10T01:26:30;96912.72;;;16.24;88.94
79331;BME280;68797;49.782;19.054;2023-06-10T01:29:24;96921.84;;;16.36;88.45
79331;BME280;68797;49.782;19.054;2023-06-10T01:32:18;96914.75;;;16.35;87.97
79331;BME280;68797;49.782;19.054;2023-06-10T01:34:57;96932.28;;;16.41;88.37
79331;BME280;68797;49.782;19.054;2023-06-10T01:37:28;96917.44;;;16.35;88.32
79331;BME280;68797;49.782;19.054;2023-06-10T01:39:58;96909.19;;;16.38;87.77
79331;BME280;68797;49.782;19.054;2023-06-10T01:42:25;96923.84;;;16.47;87.75
79331;BME280;68797;49.782;19.054;2023-06-10T01:45:01;96909.97;;;16.40;88.11
79331;BME280;68797;49.782;19.054;2023-06-10T01:47:31;96919.66;;;16.43;88.02
79331;BME280;68797;49.782;19.054;2023-06-10T01:50:00;96923.09;;;16.45;88.03
79331;BME280;68797;49.782;19.054;2023-06-10T01:52:29;96915.63;;;16.50;88.01
79331;BME280;68797;49.782;19.054;2023-06-10T01:54:58;96911.53;;;16.44;88.15
79331;BME280;68797;49.782;19.054;2023-06-10T01:57:24;96925.78;;;16.45;88.19
79331;BME280;68797;49.782;19.054;2023-06-10T01:59:56;96922.34;;;16.43;87.72
79331;BME280;68797;49.782;19.054;2023-06-10T02:02:23;96917.28;;;16.52;87.93
79331;BME280;68797;49.782;19.054;2023-06-10T02:04:53;96913.59;;;16.39;87.89
79331;BME280;68797;49.782;19.054;2023-06-10T02:07:21;96931.22;;;16.43;88.91
79331;BME280;68797;49.782;19.054;2023-06-10T02:09:50;96923.34;;;16.40;88.46
79331;BME280;68797;49.782;19.054;2023-06-10T02:12:18;96930.75;;;16.51;87.89
79331;BME280;68797;49.782;19.054;2023-06-10T02:14:53;96933.50;;;16.49;88.25
79331;BME280;68797;49.782;19.054;2023-06-10T02:17:20;96936.91;;;16.53;88.00
79331;BME280;68797;49.782;19.054;2023-06-10T02:19:47;96936.59;;;16.58;88.21
79331;BME280;68797;49.782;19.054;2023-06-10T02:22:24;96945.19;;;16.63;87.62
79331;BME280;68797;49.782;19.054;2023-06-10T02:24:52;96925.59;;;16.62;87.88
79331;BME280;68797;49.782;19.054;2023-06-10T02:27:18;96936.31;;;16.62;88.01
79331;BME280;68797;49.782;19.054;2023-06-10T02:29:48;96919.00;;;16.53;87.99
79331;BME280;68797;49.782;19.054;2023-06-10T02:32:16;96936.25;;;16.64;87.58
79331;BME280;68797;49.782;19.054;2023-06-10T02:34:53;96940.63;;;16.65;87.78
79331;BME280;68797;49.782;19.054;2023-06-10T02:37:23;96931.66;;;16.66;87.77
79331;BME280;68797;49.782;19.054;2023-06-10T02:39:50;96922.44;;;16.55;88.21
79331;BME280;68797;49.782;19.054;2023-06-10T02:42:16;96929.31;;;16.60;87.98
79331;BME280;68797;49.782;19.054;2023-06-10T02:44:48;96929.41;;;16.58;88.18
79331;BME280;68797;49.782;19.054;2023-06-10T02:47:23;96932.00;;;16.60;88.20
79331;BME280;68797;49.782;19.054;2023-06-10T02:49:51;96916.13;;;16.56;88.12
79331;BME280;68797;49.782;19.054;2023-06-10T02:52:20;96930.63;;;16.68;88.31
79331;BME280;68797;49.782;19.054;2023-06-10T02:54:56;96921.88;;;16.65;88.41
79331;BME280;68797;49.782;19.054;2023-06-10T02:57:22;96926.44;;;16.63;88.29
79331;BME280;68797;49.782;19.054;2023-06-10T02:59:50;96933.91;;;16.58;88.40
79331;BME280;68797;49.782;19.054;2023-06-10T03:02:20;96930.19;;;16.60;88.49
79331;BME280;68797;49.782;19.054;2023-06-10T03:04:51;96935.44;;;16.62;88.62
79331;BME280;68797;49.782;19.054;2023-06-10T03:07:21;96927.69;;;16.57;88.54
79331;BME280;68797;49.782;19.054;2023-06-10T03:09:51;96938.97;;;16.62;88.48
79331;BME280;68797;49.782;19.054;2023-06-10T03:12:18;96933.91;;;16.58;88.75
79331;BME280;68797;49.782;19.054;2023-06-10T03:14:49;96930.94;;;16.62;88.51
79331;BME280;68797;49.782;19.054;2023-06-10T03:17:17;96937.25;;;16.61;88.25
79331;BME280;68797;49.782;19.054;2023-06-10T03:19:46;96949.38;;;16.68;88.27
79331;BME280;68797;49.782;19.054;2023-06-10T03:22:14;96942.72;;;16.60;88.63
79331;BME280;68797;49.782;19.054;2023-06-10T03:25:05;96945.59;;;16.56;88.80
79331;BME280;68797;49.782;19.054;2023-06-10T03:27:34;96943.56;;;16.60;88.97
79331;BME280;68797;49.782;19.054;2023-06-10T03:30:05;96947.31;;;16.58;89.05
79331;BME280;68797;49.782;19.054;2023-06-10T03:32:34;96947.03;;;16.62;89.23
79331;BME280;68797;49.782;19.054;2023-06-10T03:35:11;96944.53;;;16.59;89.28
79331;BME280;68797;49.782;19.054;2023-06-10T03:37:40;96951.25;;;16.66;89.14
79331;BME280;68797;49.782;19.054;2023-06-10T03:40:11;96939.59;;;16.67;89.28
79331;BME280;68797;49.782;19.054;2023-06-10T03:42:41;96957.03;;;16.74;89.03
79331;BME280;68797;49.782;19.054;2023-06-10T03:45:12;96941.44;;;16.81;88.88
79331;BME280;68797;49.782;19.054;2023-06-10T03:47:38;96953.06;;;16.66;89.38
79331;BME280;68797;49.782;19.054;2023-06-10T03:50:10;96948.50;;;16.68;89.51
79331;BME280;68797;49.782;19.054;2023-06-10T03:52:38;96951.09;;;16.69;89.69
79331;BME280;68797;49.782;19.054;2023-06-10T03:55:11;96939.16;;;16.75;89.47
79331;BME280;68797;49.782;19.054;2023-06-10T03:57:43;96951.41;;;16.79;88.83
79331;BME280;68797;49.782;19.054;2023-06-10T04:00:21;96948.50;;;16.68;89.33
79331;BME280;68797;49.782;19.054;2023-06-10T04:02:48;96956.19;;;16.74;89.13
79331;BME280;68797;49.782;19.054;2023-06-10T04:05:26;96957.13;;;16.73;89.29
79331;BME280;68797;49.782;19.054;2023-06-10T04:07:56;96955.22;;;16.75;89.31
79331;BME280;68797;49.782;19.054;2023-06-10T04:10:26;96953.88;;;16.82;88.80
79331;BME280;68797;49.782;19.054;2023-06-10T04:12:55;96962.50;;;16.87;89.24
79331;BME280;68797;49.782;19.054;2023-06-10T04:15:28;96962.78;;;16.82;89.36
79331;BME280;68797;49.782;19.054;2023-06-10T04:17:58;96954.94;;;16.79;89.59
79331;BME280;68797;49.782;19.054;2023-06-10T04:20:27;96961.34;;;16.77;89.39
79331;BME280;68797;49.782;19.054;2023-06-10T04:22:58;96954.63;;;16.70;89.25
79331;BME280;68797;49.782;19.054;2023-06-10T04:25:35;96967.66;;;16.76;89.42
79331;BME280;68797;49.782;19.054;2023-06-10T04:28:02;96952.91;;;16.69;89.60
79331;BME280;68797;49.782;19.054;2023-06-10T04:30:39;96956.63;;;16.66;89.65
79331;BME280;68797;49.782;19.054;2023-06-10T04:33:08;96955.13;;;16.46;90.25
79331;BME280;68797;49.782;19.054;2023-06-10T04:35:41;96960.91;;;16.54;89.59
79331;BME280;68797;49.782;19.054;2023-06-10T04:38:15;96979.34;;;16.45;90.20
79331;BME280;68797;49.782;19.054;2023-06-10T04:40:44;96963.72;;;16.37;90.55
79331;BME280;68797;49.782;19.054;2023-06-10T04:43:16;96968.94;;;16.54;91.03
79331;BME280;68797;49.782;19.054;2023-06-10T04:45:46;96971.06;;;16.64;89.99
79331;BME280;68797;49.782;19.054;2023-06-10T04:48:14;96970.56;;;16.57;90.07
79331;BME280;68797;49.782;19.054;2023-06-10T04:50:52;96963.28;;;16.59;89.38
79331;BME280;68797;49.782;19.054;2023-06-10T04:53:20;96965.59;;;16.65;89.69
79331;BME280;68797;49.782;19.054;2023-06-10T04:55:48;96973.13;;;16.59;89.81
79331;BME280;68797;49.782;19.054;2023-06-10T04:58:16;96957.94;;;16.59;90.43
79331;BME280;68797;49.782;19.054;2023-06-10T05:00:47;96961.09;;;16.66;89.39
79331;BME280;68797;49.782;19.054;2023-06-10T05:03:21;96962.06;;;16.65;89.85
79331;BME280;68797;49.782;19.054;2023-06-10T05:05:53;96962.31;;;16.76;89.36
79331;BME280;68797;49.782;19.054;2023-06-10T05:08:19;96963.28;;;16.75;88.58
79331;BME280;68797;49.782;19.054;2023-06-10T05:10:47;96971.09;;;16.78;89.09
79331;BME280;68797;49.782;19.054;2023-06-10T05:13:16;96985.38;;;16.93;89.24
79331;BME280;68797;49.782;19.054;2023-06-10T05:15:44;96966.72;;;16.91;89.70
79331;BME280;68797;49.782;19.054;2023-06-10T05:18:13;96970.91;;;16.81;88.75
79331;BME280;68797;49.782;19.054;2023-06-10T05:20:45;96974.94;;;16.88;88.78
79331;BME280;68797;49.782;19.054;2023-06-10T05:23:14;96969.28;;;16.93;89.33
79331;BME280;68797;49.782;19.054;2023-06-10T05:25:41;96972.66;;;16.96;88.71
79331;BME280;68797;49.782;19.054;2023-06-10T05:28:09;96975.81;;;17.03;88.78
79331;BME280;68797;49.782;19.054;2023-06-10T05:30:38;96984.06;;;17.00;88.38
79331;BME280;68797;49.782;19.054;2023-06-10T05:33:05;96985.97;;;17.12;87.78
79331;BME280;68797;49.782;19.054;2023-06-10T05:35:40;96983.66;;;17.06;88.57
79331;BME280;68797;49.782;19.054;2023-06-10T05:38:43;96992.34;;;16.95;88.24
79331;BME280;68797;49.782;19.054;2023-06-10T05:41:11;96982.13;;;17.02;87.52
79331;BME280;68797;49.782;19.054;2023-06-10T05:43:43;96979.75;;;17.11;86.60
79331;BME280;68797;49.782;19.054;2023-06-10T05:46:25;96981.84;;;16.92;87.70
79331;BME280;68797;49.782;19.054;2023-06-10T05:48:54;96978.03;;;16.96;87.66
79331;BME280;68797;49.782;19.054;2023-06-10T05:51:27;96985.19;;;17.10;88.12
79331;BME280;68797;49.782;19.054;2023-06-10T05:53:56;96974.56;;;17.23;86.89
79331;BME280;68797;49.782;19.054;2023-06-10T05:56:24;96978.00;;;17.25;86.16
79331;BME280;68797;49.782;19.054;2023-06-10T05:58:55;96990.06;;;17.46;85.25
79331;BME280;68797;49.782;19.054;2023-06-10T06:01:28;96985.41;;;17.62;84.51
79331;BME280;68797;49.782;19.054;2023-06-10T06:03:55;96990.88;;;17.89;82.91
79331;BME280;68797;49.782;19.054;2023-06-10T06:06:22;96980.41;;;17.99;82.79
79331;BME280;68797;49.782;19.054;2023-06-10T06:08:50;96973.19;;;17.99;82.94
79331;BME280;68797;49.782;19.054;2023-06-10T06:11:19;96982.75;;;18.04;82.42
79331;BME280;68797;49.782;19.054;2023-06-10T06:13:48;96988.34;;;18.00;82.78
79331;BME280;68797;49.782;19.054;2023-06-10T06:16:15;96986.91;;;17.95;82.80
79331;BME280;68797;49.782;19.054;2023-06-10T06:18:41;96985.44;;;18.04;81.09
79331;BME280;68797;49.782;19.054;2023-06-10T06:21:08;96988.03;;;18.05;81.46
79331;BME280;68797;49.782;19.054;2023-06-10T06:23:35;96993.50;;;18.04;80.69
79331;BME280;68797;49.782;19.054;2023-06-10T06:26:13;97003.16;;;18.06;80.69
79331;BME280;68797;49.782;19.054;2023-06-10T06:28:40;96996.13;;;17.91;80.39
79331;BME280;68797;49.782;19.054;2023-06-10T06:31:07;97001.81;;;17.86;80.77
79331;BME280;68797;49.782;19.054;2023-06-10T06:33:37;96984.28;;;17.66;80.83
79331;BME280;68797;49.782;19.054;2023-06-10T06:36:05;96995.50;;;17.59;81.25
79331;BME280;68797;49.782;19.054;2023-06-10T06:38:33;97001.66;;;17.47;81.90
79331;BME280;68797;49.782;19.054;2023-06-10T06:41:00;97015.53;;;17.39;82.01
79331;BME280;68797;49.782;19.054;2023-06-10T06:43:32;97012.97;;;17.37;82.16
79331;BME280;68797;49.782;19.054;2023-06-10T06:46:22;97019.38;;;17.49;82.29
79331;BME280;68797;49.782;19.054;2023-06-10T06:48:50;97018.78;;;17.58;81.50
79331;BME280;68797;49.782;19.054;2023-06-10T06:51:19;97018.72;;;17.74;80.71
79331;BME280;68797;49.782;19.054;2023-06-10T06:53:45;97021.00;;;17.80;81.33
79331;BME280;68797;49.782;19.054;2023-06-10T06:56:17;97003.38;;;17.76;81.44
79331;BME280;68797;49.782;19.054;2023-06-10T06:58:44;97014.75;;;17.80;81.49
79331;BME280;68797;49.782;19.054;2023-06-10T07:01:16;97024.31;;;17.84;80.69
79331;BME280;68797;49.782;19.054;2023-06-10T07:03:44;97018.41;;;17.79;81.10
79331;BME280;68797;49.782;19.054;2023-06-10T07:06:13;97014.97;;;17.77;81.35
79331;BME280;68797;49.782;19.054;2023-06-10T07:08:40;97031.06;;;17.77;81.41
79331;BME280;68797;49.782;19.054;2023-06-10T07:11:10;97029.09;;;17.93;80.90
79331;BME280;68797;49.782;19.054;2023-06-10T07:13:37;97019.16;;;18.22;80.08
79331;BME280;68797;49.782;19.054;2023-06-10T07:16:06;97027.91;;;18.65;78.23
79331;BME280;68797;49.782;19.054;2023-06-10T07:18:33;97026.97;;;18.92;77.92
79331;BME280;68797;49.782;19.054;2023-06-10T07:21:02;97032.25;;;19.06;77.47
79331;BME280;68797;49.782;19.054;2023-06-10T07:23:29;97036.88;;;19.16;75.60
79331;BME280;68797;49.782;19.054;2023-06-10T07:25:56;97032.06;;;18.96;75.40
79331;BME280;68797;49.782;19.054;2023-06-10T07:28:27;97032.91;;;18.97;73.24
79331;BME280;68797;49.782;19.054;2023-06-10T07:30:54;97021.94;;;18.87;73.94
79331;BME280;68797;49.782;19.054;2023-06-10T07:33:23;97025.16;;;19.05;74.12
79331;BME280;68797;49.782;19.054;2023-06-10T07:35:59;97041.75;;;19.11;75.74
79331;BME280;68797;49.782;19.054;2023-06-10T07:38:26;97027.97;;;19.16;76.03
79331;BME280;68797;49.782;19.054;2023-06-10T07:40:53;97022.16;;;19.22;77.63
79331;BME280;68797;49.782;19.054;2023-06-10T07:43:21;97035.28;;;19.27;78.44
79331;BME280;68797;49.782;19.054;2023-06-10T07:45:50;97046.03;;;19.14;77.35
79331;BME280;68797;49.782;19.054;2023-06-10T07:48:19;97042.88;;;18.95;76.46
79331;BME280;68797;49.782;19.054;2023-06-10T07:50:46;97040.41;;;18.92;75.29
79331;BME280;68797;49.782;19.054;2023-06-10T07:53:14;97065.25;;;18.95;75.32
79331;BME280;68797;49.782;19.054;2023-06-10T07:55:44;97053.19;;;18.75;76.26
79331;BME280;68797;49.782;19.054;2023-06-10T07:58:11;97054.47;;;18.70;76.16
79331;BME280;68797;49.782;19.054;2023-06-10T08:00:42;97065.00;;;18.73;77.68
79331;BME280;68797;49.782;19.054;2023-06-10T08:03:10;97060.25;;;18.64;78.21
79331;BME280;68797;49.782;19.054;2023-06-10T08:05:39;97064.63;;;18.52;78.23
79331;BME280;68797;49.782;19.054;2023-06-10T08:08:33;97080.47;;;18.42;80.03
79331;BME280;68797;49.782;19.054;2023-06-10T08:11:11;97079.91;;;18.10;80.90
79331;BME280;68797;49.782;19.054;2023-06-10T08:13:40;97066.41;;;17.97;81.62
79331;BME280;68797;49.782;19.054;2023-06-10T08:16:08;97072.31;;;18.03;81.00
79331;BME280;68797;49.782;19.054;2023-06-10T08:18:40;97082.22;;;18.02;82.25
79331;BME280;68797;49.782;19.054;2023-06-10T08:21:10;97082.50;;;17.97;81.60
79331;BME280;68797;49.782;19.054;2023-06-10T08:23:41;97089.41;;;18.02;80.57
79331;BME280;68797;49.782;19.054;2023-06-10T08:26:11;97088.34;;;18.04;80.92
79331;BME280;68797;49.782;19.054;2023-06-10T08:28:40;97076.72;;;18.04;81.12
79331;BME280;68797;49.782;19.054;2023-06-10T08:31:07;97079.47;;;18.31;80.23
79331;BME280;68797;49.782;19.054;2023-06-10T08:33:35;97081.63;;;18.38;81.74
79331;BME280;68797;49.782;19.054;2023-06-10T08:36:04;97082.00;;;18.46;79.34
79331;BME280;68797;49.782;19.054;2023-06-10T08:38:33;97078.91;;;18.52;80.14
79331;BME280;68797;49.782;19.054;2023-06-10T08:41:05;97079.31;;;18.46;80.10
79331;BME280;68797;49.782;19.054;2023-06-10T08:43:40;97081.78;;;18.49;78.38
79331;BME280;68797;49.782;19.054;2023-06-10T08:46:36;97102.66;;;18.58;77.92
79331;BME280;68797;49.782;19.054;2023-06-10T08:49:07;97089.25;;;18.32;78.53
79331;BME280;68797;49.782;19.054;2023-06-10T08:51:37;97082.31;;;18.27;78.37
79331;BME280;68797;49.782;19.054;2023-06-10T08:54:18;97094.19;;;18.38;77.33
79331;BME280;68797;49.782;19.054;2023-06-10T08:56:55;97096.38;;;18.45;77.58
79331;BME280;68797;49.782;19.054;2023-06-10T08:59:23;97107.19;;;18.58;77.91
79331;BME280;68797;49.782;19.054;2023-06-10T09:01:55;97089.88;;;18.76;76.20
79331;BME280;68797;49.782;19.054;2023-06-10T09:04:24;97089.06;;;19.01;76.61
79331;BME280;68797;49.782;19.054;2023-06-10T09:06:54;97086.03;;;19.06;72.31
79331;BME280;68797;49.782;19.054;2023-06-10T09:09:25;97078.81;;;18.94;72.68
79331;BME280;68797;49.782;19.054;2023-06-10T09:11:58;97083.44;;;18.92;72.60
79331;BME280;68797;49.782;19.054;2023-06-10T09:14:25;97084.41;;;18.91;73.49
79331;BME280;68797;49.782;19.054;2023-06-10T09:16:54;97094.31;;;19.03;71.47
79331;BME280;68797;49.782;19.054;2023-06-10T09:19:25;97097.34;;;19.11;71.84
79331;BME280;68797;49.782;19.054;2023-06-10T09:21:55;97091.63;;;19.03;72.53
79331;BME280;68797;49.782;19.054;2023-06-10T09:24:23;97085.00;;;19.08;71.74
79331;BME280;68797;49.782;19.054;2023-06-10T09:27:03;97090.91;;;19.26;71.04
79331;BME280;68797;49.782;19.054;2023-06-10T09:29:53;97099.53;;;19.44;72.38
79331;BME280;68797;49.782;19.054;2023-06-10T09:32:21;97080.06;;;19.40;70.08
79331;BME280;68797;49.782;19.054;2023-06-10T09:34:49;97081.22;;;19.36;69.48
79331;BME280;68797;49.782;19.054;2023-06-10T09:37:25;97086.09;;;19.31;68.74
79331;BME280;68797;49.782;19.054;2023-06-10T09:40:07;97085.97;;;19.20;70.04
79331;BME280;68797;49.782;19.054;2023-06-10T09:42:39;97069.91;;;19.06;70.32
79331;BME280;68797;49.782;19.054;2023-06-10T09:45:06;97094.56;;;19.25;71.56
79331;BME280;68797;49.782;19.054;2023-06-10T09:47:33;97086.72;;;19.22;70.59
79331;BME280;68797;49.782;19.054;2023-06-10T09:50:00;97099.22;;;19.36;71.08
79331;BME280;68797;49.782;19.054;2023-06-10T09:52:29;97091.47;;;19.44;70.99
79331;BME280;68797;49.782;19.054;2023-06-10T09:55:01;97086.72;;;19.73;69.51
79331;BME280;68797;49.782;19.054;2023-06-10T09:57:32;97091.56;;;19.81;69.41
79331;BME280;68797;49.782;19.054;2023-06-10T10:00:06;97090.81;;;19.79;69.02
79331;BME280;68797;49.782;19.054;2023-06-10T10:02:52;97077.69;;;19.87;68.69
79331;BME280;68797;49.782;19.054;2023-06-10T10:05:22;97090.69;;;19.93;67.01
79331;BME280;68797;49.782;19.054;2023-06-10T10:07:49;97078.88;;;19.70;67.29
79331;BME280;68797;49.782;19.054;2023-06-10T10:10:18;97086.31;;;19.79;67.28
79331;BME280;68797;49.782;19.054;2023-06-10T10:12:56;97077.81;;;19.85;67.52
79331;BME280;68797;49.782;19.054;2023-06-10T10:15:25;97074.09;;;19.99;66.66
79331;BME280;68797;49.782;19.054;2023-06-10T10:18:10;97074.19;;;20.10;66.68
79331;BME280;68797;49.782;19.054;2023-06-10T10:21:00;97070.59;;;20.22;66.91
79331;BME280;68797;49.782;19.054;2023-06-10T10:23:50;97068.56;;;20.37;66.94
79331;BME280;68797;49.782;19.054;2023-06-10T10:26:25;97056.28;;;20.46;68.72
79331;BME280;68797;49.782;19.054;2023-06-10T10:29:16;97066.63;;;20.52;66.58
79331;BME280;68797;49.782;19.054;2023-06-10T10:31:50;97061.94;;;20.30;64.07
79331;BME280;68797;49.782;19.054;2023-06-10T10:34:45;97067.72;;;20.37;65.30
79331;BME280;68797;49.782;19.054;2023-06-10T10:37:17;97056.75;;;20.40;68.35
79331;BME280;68797;49.782;19.054;2023-06-10T10:39:47;97064.38;;;20.46;65.99
79331;BME280;68797;49.782;19.054;2023-06-10T10:42:16;97059.16;;;20.55;65.29
79331;BME280;68797;49.782;19.054;2023-06-10T10:44:46;97063.94;;;20.52;65.69
79331;BME280;68797;49.782;19.054;2023-06-10T10:47:15;97062.66;;;20.45;65.26
79331;BME280;68797;49.782;19.054;2023-06-10T10:49:50;97073.50;;;20.56;65.33
79331;BME280;68797;49.782;19.054;2023-06-10T10:52:21;97063.69;;;20.55;64.09
79331;BME280;68797;49.782;19.054;2023-06-10T10:59:19;97042.19;;;20.42;64.35
79331;BME280;68797;49.782;19.054;2023-06-10T11:01:48;97050.22;;;20.55;65.44
79331;BME280;68797;49.782;19.054;2023-06-10T11:04:18;97048.66;;;20.64;62.67
79331;BME280;68797;49.782;19.054;2023-06-10T11:07:05;97026.88;;;20.43;63.93
79331;BME280;68797;49.782;19.054;2023-06-10T11:09:33;97039.03;;;20.48;64.87
79331;BME280;68797;49.782;19.054;2023-06-10T11:12:01;97033.50;;;20.50;64.26
79331;BME280;68797;49.782;19.054;2023-06-10T11:14:30;97041.72;;;20.48;64.32
79331;BME280;68797;49.782;19.054;2023-06-10T11:17:18;97034.88;;;20.31;64.86
79331;BME280;68797;49.782;19.054;2023-06-10T11:19:47;97035.88;;;20.54;64.66
79331;BME280;68797;49.782;19.054;2023-06-10T11:22:18;97035.81;;;20.67;64.45
79331;BME280;68797;49.782;19.054;2023-06-10T11:24:51;97037.59;;;20.91;63.62
79331;BME280;68797;49.782;19.054;2023-06-10T11:27:23;97039.19;;;20.93;64.08
79331;BME280;68797;49.782;19.054;2023-06-10T11:30:19;97036.28;;;20.96;62.96
79331;BME280;68797;49.782;19.054;2023-06-10T11:33:21;97031.59;;;20.87;63.31
79331;BME280;68797;49.782;19.054;2023-06-10T11:36:53;97039.38;;;20.44;65.11
79331;BME280;68797;49.782;19.054;2023-06-10T11:39:22;97039.38;;;20.44;65.79
79331;BME280;68797;49.782;19.054;2023-06-10T11:42:00;97036.06;;;20.27;67.21
79331;BME280;68797;49.782;19.054;2023-06-10T11:44:27;97039.78;;;20.14;68.53
79331;BME280;68797;49.782;19.054;2023-06-10T11:46:56;97046.78;;;19.80;70.74
79331;BME280;68797;49.782;19.054;2023-06-10T11:49:35;97062.41;;;19.62;75.60
79331;BME280;68797;49.782;19.054;2023-06-10T11:52:13;97053.59;;;19.22;80.42
79331;BME280;68797;49.782;19.054;2023-06-10T11:54:53;97058.28;;;19.05;81.29
79331;BME280;68797;49.782;19.054;2023-06-10T11:57:21;97049.47;;;19.03;82.33
79331;BME280;68797;49.782;19.054;2023-06-10T11:59:48;97062.84;;;19.30;85.05
79331;BME280;68797;49.782;19.054;2023-06-10T12:02:18;97061.41;;;19.50;82.32
79331;BME280;68797;49.782;19.054;2023-06-10T12:04:48;97040.88;;;19.62;82.34
79331;BME280;68797;49.782;19.054;2023-06-10T12:07:24;97058.97;;;19.34;80.41
79331;BME280;68797;49.782;19.054;2023-06-10T12:10:02;97061.75;;;19.33;76.94
79331;BME280;68797;49.782;19.054;2023-06-10T12:12:34;97066.41;;;19.31;80.62
79331;BME280;68797;49.782;19.054;2023-06-10T12:15:02;97069.09;;;19.31;82.17
79331;BME280;68797;49.782;19.054;2023-06-10T12:20:04;97058.66;;;19.52;80.57
79331;BME280;68797;49.782;19.054;2023-06-10T12:22:39;97062.31;;;19.63;77.54
79331;BME280;68797;49.782;19.054;2023-06-10T12:25:09;97068.97;;;19.70;77.16
79331;BME280;68797;49.782;19.054;2023-06-10T12:27:40;97078.03;;;19.57;79.60
79331;BME280;68797;49.782;19.054;2023-06-10T12:30:19;97086.50;;;19.51;77.68
79331;BME280;68797;49.782;19.054;2023-06-10T12:32:46;97068.84;;;19.34;77.67
79331;BME280;68797;49.782;19.054;2023-06-10T12:35:26;97071.88;;;19.42;76.80
79331;BME280;68797;49.782;19.054;2023-06-10T12:38:05;97059.38;;;19.54;77.83
79331;BME280;68797;49.782;19.054;2023-06-10T12:40:39;97079.63;;;19.72;77.35
79331;BME280;68797;49.782;19.054;2023-06-10T12:43:13;97067.78;;;19.62;75.41
79331;BME280;68797;49.782;19.054;2023-06-10T12:45:49;97069.44;;;19.64;76.92
79331;BME280;68797;49.782;19.054;2023-06-10T12:48:23;97084.16;;;19.71;76.63
79331;BME280;68797;49.782;19.054;2023-06-10T12:51:14;97083.19;;;19.72;75.58
79331;BME280;68797;49.782;19.054;2023-06-10T12:53:41;97073.81;;;19.78;71.93
79331;BME280;68797;49.782;19.054;2023-06-10T12:56:10;97084.47;;;19.80;73.26
79331;BME280;68797;49.782;19.054;2023-06-10T12:58:37;97068.97;;;19.70;70.88
79331;BME280;68797;49.782;19.054;2023-06-10T13:01:19;97069.81;;;19.71;71.56
79331;BME280;68797;49.782;19.054;2023-06-10T13:03:54;97072.06;;;19.90;71.46
79331;BME280;68797;49.782;19.054;2023-06-10T13:06:21;97077.88;;;19.96;70.27
79331;BME280;68797;49.782;19.054;2023-06-10T13:08:49;97063.97;;;20.02;74.60
79331;BME280;68797;49.782;19.054;2023-06-10T13:11:18;97058.25;;;20.07;74.33
79331;BME280;68797;49.782;19.054;2023-06-10T13:13:49;97057.91;;;20.12;70.75
79331;BME280;68797;49.782;19.054;2023-06-10T13:16:17;97060.28;;;20.03;70.98
79331;BME280;68797;49.782;19.054;2023-06-10T13:18:44;97068.25;;;20.05;71.84
79331;BME280;68797;49.782;19.054;2023-06-10T13:21:12;97060.72;;;20.10;71.59